sensor_id;sensor_type;location;lat;lon;timestamp;P1;durP1;ratioP1;P2;durP2;ratioP2
12214;SDS011;6170;42.206;24.142;2023-04-29T00:00:43;10.20;;;7.05;;
12214;SDS011;6170;42.206;24.142;2023-04-29T00:03:09;11.55;;;6.75;;
12214;SDS011;6170;42.206;24.142;2023-04-29T00:05:36;12.48;;;6.93;;
12214;SDS011;6170;42.206;24.142;2023-04-29T00:08:03;9.85;;;7.07;;
12214;SDS011;6170;42.206;24.142;2023-04-29T00:10:31;11.80;;;7.40;;
12214;SDS011;6170;42.206;24.142;2023-04-29T00:12:58;12.50;;;7.55;;
12214;SDS011;6170;42.206;24.142;2023-04-29T00:15:26;9.65;;;6.90;;
12214;SDS011;6170;42.206;24.142;2023-04-29T00:17:53;11.18;;;7.75;;
12214;SDS011;6170;42.206;24.142;2023-04-29T00:20:20;11.90;;;7.82;;
12214;SDS011;6170;42.206;24.142;2023-04-29T00:22:47;14.98;;;6.72;;
12214;SDS011;6170;42.206;24.142;2023-04-29T00:25:14;10.07;;;7.43;;
12214;SDS011;6170;42.206;24.142;2023-04-29T00:27:41;12.27;;;6.85;;
12214;SDS011;6170;42.206;24.142;2023-04-29T00:30:08;10.07;;;7.20;;
12214;SDS011;6170;42.206;24.142;2023-04-29T00:32:36;10.82;;;6.82;;
12214;SDS011;6170;42.206;24.142;2023-04-29T00:35:03;11.75;;;8.00;;
12214;SDS011;6170;42.206;24.142;2023-04-29T00:37:31;10.55;;;7.32;;
12214;SDS011;6170;42.206;24.142;2023-04-29T00:39:59;10.73;;;7.28;;
12214;SDS011;6170;42.206;24.142;2023-04-29T00:42:26;17.40;;;7.57;;
12214;SDS011;6170;42.206;24.142;2023-04-29T00:44:54;14.63;;;7.97;;
12214;SDS011;6170;42.206;24.142;2023-04-29T00:47:21;13.13;;;8.65;;
12214;SDS011;6170;42.206;24.142;2023-04-29T00:49:49;10.32;;;7.72;;
12214;SDS011;6170;42.206;24.142;2023-04-29T00:52:16;13.65;;;7.60;;
12214;SDS011;6170;42.206;24.142;2023-04-29T00:54:44;12.18;;;7.80;;
12214;SDS011;6170;42.206;24.142;2023-04-29T00:57:11;10.77;;;7.72;;
12214;SDS011;6170;42.206;24.142;2023-04-29T00:59:38;14.13;;;8.63;;
12214;SDS011;6170;42.206;24.142;2023-04-29T01:02:05;11.18;;;6.95;;
12214;SDS011;6170;42.206;24.142;2023-04-29T01:04:32;11.10;;;7.30;;
12214;SDS011;6170;42.206;24.142;2023-04-29T01:07:03;9.95;;;7.20;;
12214;SDS011;6170;42.206;24.142;2023-04-29T01:09:40;10.00;;;7.25;;
12214;SDS011;6170;42.206;24.142;2023-04-29T01:12:19;12.23;;;7.13;;
12214;SDS011;6170;42.206;24.142;2023-04-29T01:14:50;13.38;;;7.50;;
12214;SDS011;6170;42.206;24.142;2023-04-29T01:17:25;10.68;;;7.28;;
12214;SDS011;6170;42.206;24.142;2023-04-29T01:19:56;12.57;;;7.30;;
12214;SDS011;6170;42.206;24.142;2023-04-29T01:22:27;18.05;;;7.43;;
12214;SDS011;6170;42.206;24.142;2023-04-29T01:24:56;11.48;;;7.50;;
12214;SDS011;6170;42.206;24.142;2023-04-29T01:27:25;12.32;;;7.57;;
12214;SDS011;6170;42.206;24.142;2023-04-29T01:29:57;13.52;;;7.97;;
12214;SDS011;6170;42.206;24.142;2023-04-29T01:32:29;12.88;;;7.53;;
12214;SDS011;6170;42.206;24.142;2023-04-29T01:35:10;11.55;;;7.70;;
12214;SDS011;6170;42.206;24.142;2023-04-29T01:37:51;10.70;;;7.75;;
12214;SDS011;6170;42.206;24.142;2023-04-29T01:40:28;13.35;;;9.57;;
12214;SDS011;6170;42.206;24.142;2023-04-29T01:43:02;13.00;;;8.18;;
12214;SDS011;6170;42.206;24.142;2023-04-29T01:45:33;16.27;;;9.45;;
12214;SDS011;6170;42.206;24.142;2023-04-29T01:48:05;18.83;;;9.85;;
12214;SDS011;6170;42.206;24.142;2023-04-29T01:50:33;21.15;;;10.57;;
12214;SDS011;6170;42.206;24.142;2023-04-29T01:53:00;16.85;;;10.82;;
12214;SDS011;6170;42.206;24.142;2023-04-29T01:55:28;21.70;;;10.93;;
12214;SDS011;6170;42.206;24.142;2023-04-29T01:57:55;15.10;;;8.82;;
12214;SDS011;6170;42.206;24.142;2023-04-29T02:00:22;17.80;;;8.15;;
12214;SDS011;6170;42.206;24.142;2023-04-29T02:02:49;11.85;;;7.50;;
12214;SDS011;6170;42.206;24.142;2023-04-29T02:05:16;12.23;;;7.65;;
12214;SDS011;6170;42.206;24.142;2023-04-29T02:07:42;10.20;;;6.63;;
12214;SDS011;6170;42.206;24.142;2023-04-29T02:10:09;13.57;;;7.03;;
12214;SDS011;6170;42.206;24.142;2023-04-29T02:12:38;12.98;;;6.63;;
12214;SDS011;6170;42.206;24.142;2023-04-29T02:15:05;11.48;;;6.68;;
12214;SDS011;6170;42.206;24.142;2023-04-29T02:17:33;10.88;;;5.75;;
12214;SDS011;6170;42.206;24.142;2023-04-29T02:20:00;18.17;;;6.65;;
12214;SDS011;6170;42.206;24.142;2023-04-29T02:22:27;12.27;;;6.97;;
12214;SDS011;6170;42.206;24.142;2023-04-29T02:24:54;9.57;;;6.60;;
12214;SDS011;6170;42.206;24.142;2023-04-29T02:27:22;12.25;;;6.72;;
12214;SDS011;6170;42.206;24.142;2023-04-29T02:29:52;11.43;;;6.95;;
12214;SDS011;6170;42.206;24.142;2023-04-29T02:32:19;10.95;;;6.50;;
12214;SDS011;6170;42.206;24.142;2023-04-29T02:34:45;11.50;;;6.85;;
12214;SDS011;6170;42.206;24.142;2023-04-29T02:37:13;11.35;;;7.00;;
12214;SDS011;6170;42.206;24.142;2023-04-29T02:39:40;11.75;;;6.57;;
12214;SDS011;6170;42.206;24.142;2023-04-29T02:42:07;11.75;;;6.57;;
12214;SDS011;6170;42.206;24.142;2023-04-29T02:44:34;13.00;;;6.60;;
12214;SDS011;6170;42.206;24.142;2023-04-29T02:47:02;12.48;;;6.20;;
12214;SDS011;6170;42.206;24.142;2023-04-29T02:49:29;8.85;;;5.80;;
12214;SDS011;6170;42.206;24.142;2023-04-29T02:51:56;9.35;;;6.43;;
12214;SDS011;6170;42.206;24.142;2023-04-29T02:54:23;11.73;;;6.70;;
12214;SDS011;6170;42.206;24.142;2023-04-29T02:56:50;11.18;;;6.43;;
12214;SDS011;6170;42.206;24.142;2023-04-29T02:59:17;10.73;;;6.07;;
12214;SDS011;6170;42.206;24.142;2023-04-29T03:01:44;14.40;;;6.53;;
12214;SDS011;6170;42.206;24.142;2023-04-29T03:04:13;11.00;;;6.25;;
12214;SDS011;6170;42.206;24.142;2023-04-29T03:06:39;9.77;;;6.70;;
12214;SDS011;6170;42.206;24.142;2023-04-29T03:09:07;10.32;;;6.50;;
12214;SDS011;6170;42.206;24.142;2023-04-29T03:11:34;11.40;;;6.20;;
12214;SDS011;6170;42.206;24.142;2023-04-29T03:14:01;10.20;;;6.53;;
12214;SDS011;6170;42.206;24.142;2023-04-29T03:16:28;9.18;;;6.25;;
12214;SDS011;6170;42.206;24.142;2023-04-29T03:18:55;10.15;;;7.10;;
12214;SDS011;6170;42.206;24.142;2023-04-29T03:21:24;14.32;;;7.45;;
12214;SDS011;6170;42.206;24.142;2023-04-29T03:23:51;14.07;;;7.13;;
12214;SDS011;6170;42.206;24.142;2023-04-29T03:26:18;12.40;;;7.25;;
12214;SDS011;6170;42.206;24.142;2023-04-29T03:28:47;10.25;;;6.57;;
12214;SDS011;6170;42.206;24.142;2023-04-29T03:31:14;12.38;;;6.78;;
12214;SDS011;6170;42.206;24.142;2023-04-29T03:33:41;11.85;;;6.78;;
12214;SDS011;6170;42.206;24.142;2023-04-29T03:36:08;10.85;;;6.50;;
12214;SDS011;6170;42.206;24.142;2023-04-29T03:38:37;9.93;;;6.68;;
12214;SDS011;6170;42.206;24.142;2023-04-29T03:41:04;13.00;;;6.85;;
12214;SDS011;6170;42.206;24.142;2023-04-29T03:43:31;10.57;;;6.88;;
12214;SDS011;6170;42.206;24.142;2023-04-29T03:45:58;13.30;;;7.65;;
12214;SDS011;6170;42.206;24.142;2023-04-29T03:48:25;10.60;;;6.53;;
12214;SDS011;6170;42.206;24.142;2023-04-29T03:50:52;8.95;;;6.53;;
12214;SDS011;6170;42.206;24.142;2023-04-29T03:53:19;14.55;;;6.60;;
12214;SDS011;6170;42.206;24.142;2023-04-29T03:55:48;10.30;;;6.40;;
12214;SDS011;6170;42.206;24.142;2023-04-29T03:58:15;10.07;;;6.63;;
12214;SDS011;6170;42.206;24.142;2023-04-29T04:00:42;11.38;;;6.68;;
12214;SDS011;6170;42.206;24.142;2023-04-29T04:03:09;10.07;;;6.47;;
12214;SDS011;6170;42.206;24.142;2023-04-29T04:05:36;9.27;;;6.35;;
12214;SDS011;6170;42.206;24.142;2023-04-29T04:08:03;10.30;;;6.00;;
12214;SDS011;6170;42.206;24.142;2023-04-29T04:10:30;11.95;;;5.88;;
12214;SDS011;6170;42.206;24.142;2023-04-29T04:12:58;11.57;;;5.68;;
12214;SDS011;6170;42.206;24.142;2023-04-29T04:15:25;11.73;;;6.90;;
12214;SDS011;6170;42.206;24.142;2023-04-29T04:17:52;14.65;;;7.80;;
12214;SDS011;6170;42.206;24.142;2023-04-29T04:20:19;21.50;;;8.20;;
12214;SDS011;6170;42.206;24.142;2023-04-29T04:22:46;14.93;;;7.22;;
12214;SDS011;6170;42.206;24.142;2023-04-29T04:25:12;23.33;;;9.60;;
12214;SDS011;6170;42.206;24.142;2023-04-29T04:27:39;25.83;;;12.32;;
12214;SDS011;6170;42.206;24.142;2023-04-29T04:30:08;48.20;;;23.52;;
12214;SDS011;6170;42.206;24.142;2023-04-29T04:32:35;24.67;;;13.50;;
12214;SDS011;6170;42.206;24.142;2023-04-29T04:35:03;19.40;;;11.00;;
12214;SDS011;6170;42.206;24.142;2023-04-29T04:37:32;11.32;;;7.63;;
12214;SDS011;6170;42.206;24.142;2023-04-29T04:39:59;7.43;;;5.70;;
12214;SDS011;6170;42.206;24.142;2023-04-29T04:42:26;8.20;;;5.85;;
12214;SDS011;6170;42.206;24.142;2023-04-29T04:44:53;6.75;;;5.22;;
12214;SDS011;6170;42.206;24.142;2023-04-29T04:47:21;9.00;;;5.80;;
12214;SDS011;6170;42.206;24.142;2023-04-29T04:49:48;6.80;;;4.78;;
12214;SDS011;6170;42.206;24.142;2023-04-29T04:52:18;7.25;;;5.28;;
12214;SDS011;6170;42.206;24.142;2023-04-29T04:54:46;8.63;;;5.07;;
12214;SDS011;6170;42.206;24.142;2023-04-29T04:57:13;9.40;;;4.95;;
12214;SDS011;6170;42.206;24.142;2023-04-29T04:59:40;8.23;;;6.07;;
12214;SDS011;6170;42.206;24.142;2023-04-29T05:02:07;11.50;;;6.40;;
12214;SDS011;6170;42.206;24.142;2023-04-29T05:04:35;9.82;;;6.20;;
12214;SDS011;6170;42.206;24.142;2023-04-29T05:07:02;14.55;;;6.95;;
12214;SDS011;6170;42.206;24.142;2023-04-29T05:09:29;11.43;;;5.82;;
12214;SDS011;6170;42.206;24.142;2023-04-29T05:11:56;10.27;;;5.50;;
12214;SDS011;6170;42.206;24.142;2023-04-29T05:14:23;10.13;;;5.75;;
12214;SDS011;6170;42.206;24.142;2023-04-29T05:16:51;7.65;;;5.57;;
12214;SDS011;6170;42.206;24.142;2023-04-29T05:19:18;10.25;;;5.05;;
12214;SDS011;6170;42.206;24.142;2023-04-29T05:21:46;9.60;;;5.57;;
12214;SDS011;6170;42.206;24.142;2023-04-29T05:24:13;10.60;;;5.50;;
12214;SDS011;6170;42.206;24.142;2023-04-29T05:26:40;16.10;;;5.85;;
12214;SDS011;6170;42.206;24.142;2023-04-29T05:29:08;8.55;;;5.30;;
12214;SDS011;6170;42.206;24.142;2023-04-29T05:31:35;10.20;;;5.75;;
12214;SDS011;6170;42.206;24.142;2023-04-29T05:34:02;7.93;;;6.03;;
12214;SDS011;6170;42.206;24.142;2023-04-29T05:36:29;9.82;;;5.75;;
12214;SDS011;6170;42.206;24.142;2023-04-29T05:38:58;10.32;;;5.82;;
12214;SDS011;6170;42.206;24.142;2023-04-29T05:41:25;11.63;;;5.78;;
12214;SDS011;6170;42.206;24.142;2023-04-29T05:43:51;8.15;;;5.43;;
12214;SDS011;6170;42.206;24.142;2023-04-29T05:46:18;11.82;;;5.95;;
12214;SDS011;6170;42.206;24.142;2023-04-29T05:48:47;10.30;;;5.50;;
12214;SDS011;6170;42.206;24.142;2023-04-29T05:51:13;8.60;;;4.90;;
12214;SDS011;6170;42.206;24.142;2023-04-29T05:53:41;7.22;;;5.13;;
12214;SDS011;6170;42.206;24.142;2023-04-29T05:56:09;11.55;;;7.20;;
12214;SDS011;6170;42.206;24.142;2023-04-29T05:58:36;14.63;;;5.85;;
12214;SDS011;6170;42.206;24.142;2023-04-29T06:01:03;10.25;;;5.43;;
12214;SDS011;6170;42.206;24.142;2023-04-29T06:03:29;10.77;;;5.22;;
12214;SDS011;6170;42.206;24.142;2023-04-29T06:05:56;9.35;;;5.47;;
12214;SDS011;6170;42.206;24.142;2023-04-29T06:08:24;10.57;;;5.10;;
12214;SDS011;6170;42.206;24.142;2023-04-29T06:10:51;11.40;;;5.60;;
12214;SDS011;6170;42.206;24.142;2023-04-29T06:13:19;8.40;;;4.97;;
12214;SDS011;6170;42.206;24.142;2023-04-29T06:15:46;9.57;;;5.15;;
12214;SDS011;6170;42.206;24.142;2023-04-29T06:18:13;9.60;;;5.30;;
12214;SDS011;6170;42.206;24.142;2023-04-29T06:20:40;7.95;;;5.40;;
12214;SDS011;6170;42.206;24.142;2023-04-29T06:23:07;10.27;;;5.35;;
12214;SDS011;6170;42.206;24.142;2023-04-29T06:25:34;9.43;;;5.13;;
12214;SDS011;6170;42.206;24.142;2023-04-29T06:28:01;11.77;;;5.78;;
12214;SDS011;6170;42.206;24.142;2023-04-29T06:30:29;7.40;;;4.78;;
12214;SDS011;6170;42.206;24.142;2023-04-29T06:32:56;7.03;;;5.00;;
12214;SDS011;6170;42.206;24.142;2023-04-29T06:35:23;8.15;;;4.78;;
12214;SDS011;6170;42.206;24.142;2023-04-29T06:37:50;7.32;;;5.55;;
12214;SDS011;6170;42.206;24.142;2023-04-29T06:40:18;9.77;;;5.30;;
12214;SDS011;6170;42.206;24.142;2023-04-29T06:42:44;5.78;;;4.60;;
12214;SDS011;6170;42.206;24.142;2023-04-29T06:45:11;6.22;;;4.13;;
12214;SDS011;6170;42.206;24.142;2023-04-29T06:47:39;5.30;;;3.63;;
12214;SDS011;6170;42.206;24.142;2023-04-29T06:50:06;7.22;;;3.92;;
12214;SDS011;6170;42.206;24.142;2023-04-29T06:52:34;5.20;;;3.28;;
12214;SDS011;6170;42.206;24.142;2023-04-29T06:55:01;6.20;;;3.78;;
12214;SDS011;6170;42.206;24.142;2023-04-29T06:57:28;8.35;;;4.35;;
12214;SDS011;6170;42.206;24.142;2023-04-29T06:59:56;9.73;;;4.05;;
12214;SDS011;6170;42.206;24.142;2023-04-29T07:02:23;8.15;;;4.28;;
12214;SDS011;6170;42.206;24.142;2023-04-29T07:04:51;9.07;;;3.78;;
12214;SDS011;6170;42.206;24.142;2023-04-29T07:07:18;4.90;;;3.30;;
12214;SDS011;6170;42.206;24.142;2023-04-29T07:09:45;4.72;;;3.50;;
12214;SDS011;6170;42.206;24.142;2023-04-29T07:12:15;7.50;;;3.83;;
12214;SDS011;6170;42.206;24.142;2023-04-29T07:14:41;10.60;;;3.92;;
12214;SDS011;6170;42.206;24.142;2023-04-29T07:17:08;10.20;;;3.90;;
12214;SDS011;6170;42.206;24.142;2023-04-29T07:19:35;9.13;;;3.42;;
12214;SDS011;6170;42.206;24.142;2023-04-29T07:22:03;6.20;;;3.58;;
12214;SDS011;6170;42.206;24.142;2023-04-29T07:24:30;6.57;;;3.50;;
12214;SDS011;6170;42.206;24.142;2023-04-29T07:26:57;6.13;;;3.45;;
12214;SDS011;6170;42.206;24.142;2023-04-29T07:29:24;6.50;;;3.33;;
12214;SDS011;6170;42.206;24.142;2023-04-29T07:31:51;5.70;;;3.35;;
12214;SDS011;6170;42.206;24.142;2023-04-29T07:34:18;8.65;;;4.35;;
12214;SDS011;6170;42.206;24.142;2023-04-29T07:36:45;5.28;;;3.58;;
12214;SDS011;6170;42.206;24.142;2023-04-29T07:39:13;6.25;;;3.53;;
12214;SDS011;6170;42.206;24.142;2023-04-29T07:41:41;11.85;;;4.10;;
12214;SDS011;6170;42.206;24.142;2023-04-29T07:44:07;6.38;;;4.35;;
12214;SDS011;6170;42.206;24.142;2023-04-29T07:46:34;9.45;;;5.22;;
12214;SDS011;6170;42.206;24.142;2023-04-29T07:49:01;5.57;;;4.45;;
12214;SDS011;6170;42.206;24.142;2023-04-29T07:51:29;9.38;;;4.25;;
12214;SDS011;6170;42.206;24.142;2023-04-29T07:53:57;8.73;;;4.32;;
12214;SDS011;6170;42.206;24.142;2023-04-29T07:56:25;7.00;;;5.00;;
12214;SDS011;6170;42.206;24.142;2023-04-29T07:58:52;7.03;;;4.43;;
12214;SDS011;6170;42.206;24.142;2023-04-29T08:01:19;7.15;;;4.10;;
12214;SDS011;6170;42.206;24.142;2023-04-29T08:03:46;6.05;;;4.05;;
12214;SDS011;6170;42.206;24.142;2023-04-29T08:06:12;8.13;;;4.53;;
12214;SDS011;6170;42.206;24.142;2023-04-29T08:08:39;12.60;;;4.47;;
12214;SDS011;6170;42.206;24.142;2023-04-29T08:11:06;6.53;;;4.63;;
12214;SDS011;6170;42.206;24.142;2023-04-29T08:13:34;6.18;;;4.30;;
12214;SDS011;6170;42.206;24.142;2023-04-29T08:16:01;7.75;;;4.25;;
12214;SDS011;6170;42.206;24.142;2023-04-29T08:18:28;7.35;;;4.15;;
12214;SDS011;6170;42.206;24.142;2023-04-29T08:20:55;8.35;;;4.38;;
12214;SDS011;6170;42.206;24.142;2023-04-29T08:23:22;7.93;;;3.90;;
12214;SDS011;6170;42.206;24.142;2023-04-29T08:25:49;6.10;;;3.85;;
12214;SDS011;6170;42.206;24.142;2023-04-29T08:28:17;5.75;;;4.05;;
12214;SDS011;6170;42.206;24.142;2023-04-29T08:30:45;6.03;;;4.38;;
12214;SDS011;6170;42.206;24.142;2023-04-29T08:33:13;9.18;;;4.20;;
12214;SDS011;6170;42.206;24.142;2023-04-29T08:35:39;4.25;;;3.72;;
12214;SDS011;6170;42.206;24.142;2023-04-29T08:38:07;6.53;;;3.92;;
12214;SDS011;6170;42.206;24.142;2023-04-29T08:40:34;6.63;;;3.58;;
12214;SDS011;6170;42.206;24.142;2023-04-29T08:43:02;7.93;;;3.65;;
12214;SDS011;6170;42.206;24.142;2023-04-29T08:45:30;11.35;;;4.38;;
12214;SDS011;6170;42.206;24.142;2023-04-29T08:47:59;5.85;;;3.60;;
12214;SDS011;6170;42.206;24.142;2023-04-29T08:50:27;7.63;;;4.03;;
12214;SDS011;6170;42.206;24.142;2023-04-29T08:52:55;5.88;;;3.75;;
12214;SDS011;6170;42.206;24.142;2023-04-29T08:55:22;10.65;;;4.38;;
12214;SDS011;6170;42.206;24.142;2023-04-29T08:57:50;20.13;;;4.30;;
12214;SDS011;6170;42.206;24.142;2023-04-29T09:00:20;7.53;;;3.67;;
12214;SDS011;6170;42.206;24.142;2023-04-29T09:02:50;5.03;;;3.58;;
12214;SDS011;6170;42.206;24.142;2023-04-29T09:05:20;11.52;;;3.70;;
12214;SDS011;6170;42.206;24.142;2023-04-29T09:07:47;7.60;;;3.58;;
12214;SDS011;6170;42.206;24.142;2023-04-29T09:10:17;7.45;;;3.80;;
12214;SDS011;6170;42.206;24.142;2023-04-29T09:12:44;7.28;;;3.60;;
12214;SDS011;6170;42.206;24.142;2023-04-29T09:15:11;6.57;;;3.60;;
12214;SDS011;6170;42.206;24.142;2023-04-29T09:17:41;7.95;;;4.00;;
12214;SDS011;6170;42.206;24.142;2023-04-29T09:20:27;8.65;;;3.28;;
12214;SDS011;6170;42.206;24.142;2023-04-29T09:22:55;8.63;;;3.58;;
12214;SDS011;6170;42.206;24.142;2023-04-29T09:25:23;6.28;;;3.53;;
12214;SDS011;6170;42.206;24.142;2023-04-29T09:27:51;5.60;;;3.75;;
12214;SDS011;6170;42.206;24.142;2023-04-29T09:30:18;5.68;;;3.63;;
12214;SDS011;6170;42.206;24.142;2023-04-29T09:32:46;8.30;;;3.53;;
12214;SDS011;6170;42.206;24.142;2023-04-29T09:35:31;9.25;;;3.67;;
12214;SDS011;6170;42.206;24.142;2023-04-29T09:38:08;5.78;;;3.60;;
12214;SDS011;6170;42.206;24.142;2023-04-29T09:40:37;7.90;;;3.55;;
12214;SDS011;6170;42.206;24.142;2023-04-29T09:43:10;11.57;;;3.42;;
12214;SDS011;6170;42.206;24.142;2023-04-29T09:45:38;9.57;;;3.60;;
12214;SDS011;6170;42.206;24.142;2023-04-29T09:48:07;9.88;;;3.75;;
12214;SDS011;6170;42.206;24.142;2023-04-29T09:50:37;9.95;;;3.47;;
12214;SDS011;6170;42.206;24.142;2023-04-29T09:53:05;8.60;;;3.58;;
12214;SDS011;6170;42.206;24.142;2023-04-29T09:55:36;7.38;;;3.30;;
12214;SDS011;6170;42.206;24.142;2023-04-29T09:58:26;6.93;;;3.58;;
12214;SDS011;6170;42.206;24.142;2023-04-29T10:00:55;5.47;;;3.33;;
12214;SDS011;6170;42.206;24.142;2023-04-29T10:03:26;5.50;;;3.28;;
12214;SDS011;6170;42.206;24.142;2023-04-29T10:05:58;6.78;;;3.25;;
12214;SDS011;6170;42.206;24.142;2023-04-29T10:08:27;5.40;;;3.10;;
12214;SDS011;6170;42.206;24.142;2023-04-29T10:10:55;4.97;;;3.10;;
12214;SDS011;6170;42.206;24.142;2023-04-29T10:13:25;4.88;;;2.72;;
12214;SDS011;6170;42.206;24.142;2023-04-29T10:15:55;10.63;;;3.53;;
12214;SDS011;6170;42.206;24.142;2023-04-29T10:18:29;7.40;;;3.13;;
12214;SDS011;6170;42.206;24.142;2023-04-29T10:21:02;4.32;;;2.97;;
12214;SDS011;6170;42.206;24.142;2023-04-29T10:23:33;3.10;;;2.50;;
12214;SDS011;6170;42.206;24.142;2023-04-29T10:26:00;3.95;;;2.55;;
12214;SDS011;6170;42.206;24.142;2023-04-29T10:28:29;5.80;;;2.70;;
12214;SDS011;6170;42.206;24.142;2023-04-29T10:30:57;5.25;;;3.00;;
12214;SDS011;6170;42.206;24.142;2023-04-29T10:33:27;3.45;;;2.50;;
12214;SDS011;6170;42.206;24.142;2023-04-29T10:35:57;6.38;;;2.63;;
12214;SDS011;6170;42.206;24.142;2023-04-29T10:38:28;5.05;;;2.67;;
12214;SDS011;6170;42.206;24.142;2023-04-29T10:41:00;5.55;;;2.55;;
12214;SDS011;6170;42.206;24.142;2023-04-29T10:43:33;4.80;;;2.90;;
12214;SDS011;6170;42.206;24.142;2023-04-29T10:46:16;5.20;;;2.70;;
12214;SDS011;6170;42.206;24.142;2023-04-29T10:48:45;8.25;;;3.53;;
12214;SDS011;6170;42.206;24.142;2023-04-29T10:51:12;7.07;;;3.10;;
12214;SDS011;6170;42.206;24.142;2023-04-29T10:54:01;7.10;;;3.10;;
12214;SDS011;6170;42.206;24.142;2023-04-29T10:56:34;4.30;;;3.00;;
12214;SDS011;6170;42.206;24.142;2023-04-29T10:59:03;6.47;;;2.78;;
12214;SDS011;6170;42.206;24.142;2023-04-29T11:01:40;6.97;;;3.00;;
12214;SDS011;6170;42.206;24.142;2023-04-29T11:04:08;7.57;;;2.75;;
12214;SDS011;6170;42.206;24.142;2023-04-29T11:06:39;4.97;;;2.85;;
12214;SDS011;6170;42.206;24.142;2023-04-29T11:09:13;7.25;;;2.72;;
12214;SDS011;6170;42.206;24.142;2023-04-29T11:11:44;4.05;;;2.60;;
12214;SDS011;6170;42.206;24.142;2023-04-29T11:14:23;6.15;;;3.08;;
12214;SDS011;6170;42.206;24.142;2023-04-29T11:16:52;4.82;;;2.83;;
12214;SDS011;6170;42.206;24.142;2023-04-29T11:19:22;12.95;;;3.08;;
12214;SDS011;6170;42.206;24.142;2023-04-29T11:22:02;4.85;;;2.70;;
12214;SDS011;6170;42.206;24.142;2023-04-29T11:24:36;6.05;;;2.55;;
12214;SDS011;6170;42.206;24.142;2023-04-29T11:27:14;5.97;;;3.22;;
12214;SDS011;6170;42.206;24.142;2023-04-29T11:29:41;6.43;;;3.05;;
12214;SDS011;6170;42.206;24.142;2023-04-29T11:32:08;5.53;;;2.85;;
12214;SDS011;6170;42.206;24.142;2023-04-29T11:34:35;4.60;;;3.05;;
12214;SDS011;6170;42.206;24.142;2023-04-29T11:37:03;4.82;;;2.85;;
12214;SDS011;6170;42.206;24.142;2023-04-29T11:39:32;4.90;;;2.92;;
12214;SDS011;6170;42.206;24.142;2023-04-29T11:42:04;4.57;;;2.65;;
12214;SDS011;6170;42.206;24.142;2023-04-29T11:44:32;4.07;;;2.55;;
12214;SDS011;6170;42.206;24.142;2023-04-29T11:47:00;3.78;;;2.55;;
12214;SDS011;6170;42.206;24.142;2023-04-29T11:49:28;3.97;;;2.72;;
12214;SDS011;6170;42.206;24.142;2023-04-29T11:51:56;9.65;;;2.88;;
12214;SDS011;6170;42.206;24.142;2023-04-29T11:54:24;7.70;;;3.13;;
12214;SDS011;6170;42.206;24.142;2023-04-29T11:56:52;4.53;;;2.80;;
12214;SDS011;6170;42.206;24.142;2023-04-29T11:59:21;5.35;;;2.80;;
12214;SDS011;6170;42.206;24.142;2023-04-29T12:01:48;6.45;;;3.00;;
12214;SDS011;6170;42.206;24.142;2023-04-29T12:04:15;5.10;;;2.60;;
12214;SDS011;6170;42.206;24.142;2023-04-29T12:06:43;5.32;;;3.05;;
12214;SDS011;6170;42.206;24.142;2023-04-29T12:09:10;6.68;;;3.22;;
12214;SDS011;6170;42.206;24.142;2023-04-29T12:11:39;7.30;;;3.00;;
12214;SDS011;6170;42.206;24.142;2023-04-29T12:14:06;5.53;;;2.80;;
12214;SDS011;6170;42.206;24.142;2023-04-29T12:16:34;4.68;;;2.70;;
12214;SDS011;6170;42.206;24.142;2023-04-29T12:19:02;5.30;;;2.95;;
12214;SDS011;6170;42.206;24.142;2023-04-29T12:21:29;4.05;;;2.85;;
12214;SDS011;6170;42.206;24.142;2023-04-29T12:23:57;3.65;;;2.72;;
12214;SDS011;6170;42.206;24.142;2023-04-29T12:26:26;7.93;;;2.92;;
12214;SDS011;6170;42.206;24.142;2023-04-29T12:28:55;10.15;;;2.60;;
12214;SDS011;6170;42.206;24.142;2023-04-29T12:31:23;5.25;;;3.08;;
12214;SDS011;6170;42.206;24.142;2023-04-29T12:33:59;3.88;;;2.78;;
12214;SDS011;6170;42.206;24.142;2023-04-29T12:36:30;19.45;;;9.90;;
12214;SDS011;6170;42.206;24.142;2023-04-29T12:38:57;12.50;;;8.77;;
12214;SDS011;6170;42.206;24.142;2023-04-29T12:41:38;7.97;;;4.10;;
12214;SDS011;6170;42.206;24.142;2023-04-29T12:44:06;7.70;;;4.63;;
12214;SDS011;6170;42.206;24.142;2023-04-29T12:46:36;8.73;;;2.80;;
12214;SDS011;6170;42.206;24.142;2023-04-29T12:49:05;4.85;;;2.80;;
12214;SDS011;6170;42.206;24.142;2023-04-29T12:51:34;5.07;;;2.50;;
12214;SDS011;6170;42.206;24.142;2023-04-29T12:54:02;11.68;;;2.83;;
12214;SDS011;6170;42.206;24.142;2023-04-29T12:56:31;10.88;;;3.25;;
12214;SDS011;6170;42.206;24.142;2023-04-29T12:59:03;6.57;;;3.25;;
12214;SDS011;6170;42.206;24.142;2023-04-29T13:01:31;4.30;;;3.30;;
12214;SDS011;6170;42.206;24.142;2023-04-29T13:03:58;5.43;;;3.45;;
12214;SDS011;6170;42.206;24.142;2023-04-29T13:06:26;7.43;;;2.97;;
12214;SDS011;6170;42.206;24.142;2023-04-29T13:08:53;6.07;;;3.05;;
12214;SDS011;6170;42.206;24.142;2023-04-29T13:11:20;6.75;;;2.80;;
12214;SDS011;6170;42.206;24.142;2023-04-29T13:13:47;9.10;;;3.17;;
12214;SDS011;6170;42.206;24.142;2023-04-29T13:16:14;7.80;;;3.25;;
12214;SDS011;6170;42.206;24.142;2023-04-29T13:18:42;3.40;;;2.50;;
12214;SDS011;6170;42.206;24.142;2023-04-29T13:21:09;5.00;;;2.88;;
12214;SDS011;6170;42.206;24.142;2023-04-29T13:23:37;6.05;;;2.67;;
12214;SDS011;6170;42.206;24.142;2023-04-29T13:26:04;8.50;;;3.33;;
12214;SDS011;6170;42.206;24.142;2023-04-29T13:28:33;4.45;;;2.55;;
12214;SDS011;6170;42.206;24.142;2023-04-29T13:30:59;3.85;;;2.80;;
12214;SDS011;6170;42.206;24.142;2023-04-29T13:33:26;9.05;;;2.53;;
12214;SDS011;6170;42.206;24.142;2023-04-29T13:35:53;3.85;;;2.55;;
12214;SDS011;6170;42.206;24.142;2023-04-29T13:38:20;59.47;;;6.03;;
12214;SDS011;6170;42.206;24.142;2023-04-29T13:40:48;4.50;;;2.35;;
12214;SDS011;6170;42.206;24.142;2023-04-29T13:43:16;4.20;;;2.90;;
12214;SDS011;6170;42.206;24.142;2023-04-29T13:45:43;18.77;;;3.70;;
12214;SDS011;6170;42.206;24.142;2023-04-29T13:48:09;5.65;;;2.88;;
12214;SDS011;6170;42.206;24.142;2023-04-29T13:50:36;7.72;;;2.80;;
12214;SDS011;6170;42.206;24.142;2023-04-29T13:53:05;5.07;;;2.67;;
12214;SDS011;6170;42.206;24.142;2023-04-29T13:55:32;4.32;;;2.67;;
12214;SDS011;6170;42.206;24.142;2023-04-29T13:58:00;4.25;;;2.95;;
12214;SDS011;6170;42.206;24.142;2023-04-29T14:00:27;5.47;;;2.30;;
12214;SDS011;6170;42.206;24.142;2023-04-29T14:02:54;4.90;;;2.80;;
12214;SDS011;6170;42.206;24.142;2023-04-29T14:05:21;4.88;;;2.78;;
12214;SDS011;6170;42.206;24.142;2023-04-29T14:07:48;3.25;;;2.35;;
12214;SDS011;6170;42.206;24.142;2023-04-29T14:10:15;8.45;;;3.00;;
12214;SDS011;6170;42.206;24.142;2023-04-29T14:12:42;5.32;;;2.80;;
12214;SDS011;6170;42.206;24.142;2023-04-29T14:15:11;6.60;;;2.63;;
12214;SDS011;6170;42.206;24.142;2023-04-29T14:17:38;3.33;;;2.25;;
12214;SDS011;6170;42.206;24.142;2023-04-29T14:20:05;7.15;;;2.90;;
12214;SDS011;6170;42.206;24.142;2023-04-29T14:22:33;3.70;;;2.25;;
12214;SDS011;6170;42.206;24.142;2023-04-29T14:25:00;6.50;;;2.47;;
12214;SDS011;6170;42.206;24.142;2023-04-29T14:27:27;4.97;;;2.40;;
12214;SDS011;6170;42.206;24.142;2023-04-29T14:29:54;4.85;;;2.78;;
12214;SDS011;6170;42.206;24.142;2023-04-29T14:32:22;6.93;;;2.80;;
12214;SDS011;6170;42.206;24.142;2023-04-29T14:34:49;6.68;;;2.60;;
12214;SDS011;6170;42.206;24.142;2023-04-29T14:37:16;3.72;;;2.50;;
12214;SDS011;6170;42.206;24.142;2023-04-29T14:39:43;5.20;;;2.30;;
12214;SDS011;6170;42.206;24.142;2023-04-29T14:42:10;4.72;;;2.80;;
12214;SDS011;6170;42.206;24.142;2023-04-29T14:44:37;7.78;;;2.88;;
12214;SDS011;6170;42.206;24.142;2023-04-29T14:47:03;4.43;;;2.55;;
12214;SDS011;6170;42.206;24.142;2023-04-29T14:49:32;6.00;;;2.55;;